« えとぴりか 富山新港 2014/10/25 sat | トップページ | 入間航空祭【帰投編】 入間飛行場 2014/11/3 mon »

2014/10/28

湖畔 霞ケ浦 2014/10/28 tue

しずかなこはんの もりのかげから
みずあびはいかがと ちぬがとぶ
ちぬ ちぬ ちぬ ちぬ ちぬーく♪

朝日が眩しい湖畔の向こうからへり音。おっ、もしや水浴びか? と、思わず立ち止まって観察した。

RJAK 280008Z COR 29009G21KT 9999 FEW250 16/01 Q1018 RMK 1CI250 A3007

20141028_kasumigaura_00jg

飛んでるちぬ君は、2羽

20141028_kasumigaura_01jg

ぐるぐる、廻っています

20141028_kasumigaura_02jg

おお、いよいよ着水か? 

20141028_kasumigaura_03jg

と、思いきや このまま上昇してしまった。

20141028_kasumigaura_04jg

遠目で見辛いが、木更津のAZUMA(104avn)のようだ

20141028_kasumigaura_05ja614a

折りしも上空を河原発のERが通過

ANA884 RJNT-RJTT JA614A B767-381ER

|

« えとぴりか 富山新港 2014/10/25 sat | トップページ | 入間航空祭【帰投編】 入間飛行場 2014/11/3 mon »

場外」カテゴリの記事

コメント

コメントを書く



(ウェブ上には掲載しません)


コメントは記事投稿者が公開するまで表示されません。



トラックバック


この記事へのトラックバック一覧です: 湖畔 霞ケ浦 2014/10/28 tue:

« えとぴりか 富山新港 2014/10/25 sat | トップページ | 入間航空祭【帰投編】 入間飛行場 2014/11/3 mon »